sensor_id;sensor_type;location;lat;lon;timestamp;P1;durP1;ratioP1;P2;durP2;ratioP2
1378;SDS011;683;48.738;9.226;2023-04-29T00:01:39;6.70;;;6.00;;
1378;SDS011;683;48.738;9.226;2023-04-29T00:04:06;6.93;;;5.03;;
1378;SDS011;683;48.738;9.226;2023-04-29T00:06:34;5.80;;;5.30;;
1378;SDS011;683;48.738;9.226;2023-04-29T00:09:02;6.30;;;5.80;;
1378;SDS011;683;48.738;9.226;2023-04-29T00:11:29;5.10;;;4.70;;
1378;SDS011;683;48.738;9.226;2023-04-29T00:13:57;5.90;;;5.00;;
1378;SDS011;683;48.738;9.226;2023-04-29T00:16:24;5.53;;;5.07;;
1378;SDS011;683;48.738;9.226;2023-04-29T00:18:53;6.93;;;5.03;;
1378;SDS011;683;48.738;9.226;2023-04-29T00:21:21;5.33;;;4.83;;
1378;SDS011;683;48.738;9.226;2023-04-29T00:23:49;5.73;;;5.03;;
1378;SDS011;683;48.738;9.226;2023-04-29T00:26:16;5.77;;;5.27;;
1378;SDS011;683;48.738;9.226;2023-04-29T00:28:46;5.43;;;4.93;;
1378;SDS011;683;48.738;9.226;2023-04-29T00:31:14;5.27;;;4.80;;
1378;SDS011;683;48.738;9.226;2023-04-29T00:33:41;5.47;;;5.00;;
1378;SDS011;683;48.738;9.226;2023-04-29T00:36:10;5.97;;;5.57;;
1378;SDS011;683;48.738;9.226;2023-04-29T00:38:38;6.27;;;5.77;;
1378;SDS011;683;48.738;9.226;2023-04-29T00:41:06;6.50;;;4.40;;
1378;SDS011;683;48.738;9.226;2023-04-29T00:43:33;5.60;;;5.20;;
1378;SDS011;683;48.738;9.226;2023-04-29T00:46:01;6.27;;;5.77;;
1378;SDS011;683;48.738;9.226;2023-04-29T00:48:28;6.83;;;6.23;;
1378;SDS011;683;48.738;9.226;2023-04-29T00:50:55;5.50;;;5.10;;
1378;SDS011;683;48.738;9.226;2023-04-29T00:53:24;6.40;;;4.90;;
1378;SDS011;683;48.738;9.226;2023-04-29T00:55:52;5.10;;;4.80;;
1378;SDS011;683;48.738;9.226;2023-04-29T00:58:21;4.97;;;4.50;;
1378;SDS011;683;48.738;9.226;2023-04-29T01:00:54;5.57;;;5.17;;
1378;SDS011;683;48.738;9.226;2023-04-29T01:03:22;7.00;;;4.60;;
1378;SDS011;683;48.738;9.226;2023-04-29T01:05:51;5.80;;;5.30;;
1378;SDS011;683;48.738;9.226;2023-04-29T01:08:30;5.60;;;5.10;;
1378;SDS011;683;48.738;9.226;2023-04-29T01:11:07;5.50;;;5.10;;
1378;SDS011;683;48.738;9.226;2023-04-29T01:13:36;5.63;;;5.13;;
1378;SDS011;683;48.738;9.226;2023-04-29T01:16:10;5.60;;;5.20;;
1378;SDS011;683;48.738;9.226;2023-04-29T01:18:42;5.80;;;5.10;;
1378;SDS011;683;48.738;9.226;2023-04-29T01:21:16;6.20;;;5.70;;
1378;SDS011;683;48.738;9.226;2023-04-29T01:23:45;6.10;;;5.60;;
1378;SDS011;683;48.738;9.226;2023-04-29T01:26:16;6.07;;;5.47;;
1378;SDS011;683;48.738;9.226;2023-04-29T01:28:51;5.70;;;5.10;;
1378;SDS011;683;48.738;9.226;2023-04-29T01:31:27;6.13;;;5.53;;
1378;SDS011;683;48.738;9.226;2023-04-29T01:34:03;7.53;;;6.93;;
1378;SDS011;683;48.738;9.226;2023-04-29T01:36:37;5.23;;;4.93;;
1378;SDS011;683;48.738;9.226;2023-04-29T01:39:13;5.67;;;5.20;;
1378;SDS011;683;48.738;9.226;2023-04-29T01:41:55;5.40;;;5.00;;
1378;SDS011;683;48.738;9.226;2023-04-29T01:44:28;5.90;;;5.17;;
1378;SDS011;683;48.738;9.226;2023-04-29T01:46:58;5.60;;;4.77;;
1378;SDS011;683;48.738;9.226;2023-04-29T01:49:37;5.93;;;5.43;;
1378;SDS011;683;48.738;9.226;2023-04-29T01:52:05;5.17;;;4.77;;
1378;SDS011;683;48.738;9.226;2023-04-29T01:54:34;5.03;;;4.63;;
1378;SDS011;683;48.738;9.226;2023-04-29T01:57:03;5.20;;;4.80;;
1378;SDS011;683;48.738;9.226;2023-04-29T01:59:42;5.30;;;4.80;;
1378;SDS011;683;48.738;9.226;2023-04-29T02:02:30;5.60;;;5.10;;
1378;SDS011;683;48.738;9.226;2023-04-29T02:05:07;5.70;;;5.13;;
1378;SDS011;683;48.738;9.226;2023-04-29T02:07:39;5.27;;;4.87;;
1378;SDS011;683;48.738;9.226;2023-04-29T02:10:10;5.70;;;5.13;;
1378;SDS011;683;48.738;9.226;2023-04-29T02:12:40;4.50;;;4.10;;
1378;SDS011;683;48.738;9.226;2023-04-29T02:15:08;4.23;;;3.93;;
1378;SDS011;683;48.738;9.226;2023-04-29T02:17:36;4.73;;;4.43;;
1378;SDS011;683;48.738;9.226;2023-04-29T02:20:03;5.23;;;4.17;;
1378;SDS011;683;48.738;9.226;2023-04-29T02:22:31;3.67;;;3.40;;
1378;SDS011;683;48.738;9.226;2023-04-29T02:24:59;4.33;;;4.03;;
1378;SDS011;683;48.738;9.226;2023-04-29T02:27:28;3.87;;;3.67;;
1378;SDS011;683;48.738;9.226;2023-04-29T02:29:55;4.47;;;4.10;;
1378;SDS011;683;48.738;9.226;2023-04-29T02:32:24;5.07;;;4.67;;
1378;SDS011;683;48.738;9.226;2023-04-29T02:34:51;4.50;;;4.20;;
1378;SDS011;683;48.738;9.226;2023-04-29T02:37:20;4.33;;;3.93;;
1378;SDS011;683;48.738;9.226;2023-04-29T02:39:47;4.57;;;4.23;;
1378;SDS011;683;48.738;9.226;2023-04-29T02:42:15;4.63;;;4.17;;
1378;SDS011;683;48.738;9.226;2023-04-29T02:44:43;6.10;;;3.97;;
1378;SDS011;683;48.738;9.226;2023-04-29T02:47:11;6.43;;;4.03;;
1378;SDS011;683;48.738;9.226;2023-04-29T02:49:38;5.63;;;3.60;;
1378;SDS011;683;48.738;9.226;2023-04-29T02:52:06;4.10;;;3.73;;
1378;SDS011;683;48.738;9.226;2023-04-29T02:54:34;3.90;;;3.60;;
1378;SDS011;683;48.738;9.226;2023-04-29T02:57:02;5.87;;;3.63;;
1378;SDS011;683;48.738;9.226;2023-04-29T02:59:29;7.10;;;3.43;;
1378;SDS011;683;48.738;9.226;2023-04-29T03:01:58;3.77;;;3.47;;
1378;SDS011;683;48.738;9.226;2023-04-29T03:04:26;5.27;;;4.80;;
1378;SDS011;683;48.738;9.226;2023-04-29T03:06:54;7.60;;;5.13;;
1378;SDS011;683;48.738;9.226;2023-04-29T03:09:24;5.00;;;4.63;;
1378;SDS011;683;48.738;9.226;2023-04-29T03:11:51;4.23;;;3.93;;
1378;SDS011;683;48.738;9.226;2023-04-29T03:14:19;4.47;;;4.17;;
1378;SDS011;683;48.738;9.226;2023-04-29T03:16:47;5.80;;;5.30;;
1378;SDS011;683;48.738;9.226;2023-04-29T03:19:16;6.10;;;5.60;;
1378;SDS011;683;48.738;9.226;2023-04-29T03:21:43;6.30;;;5.80;;
1378;SDS011;683;48.738;9.226;2023-04-29T03:24:11;5.07;;;4.77;;
1378;SDS011;683;48.738;9.226;2023-04-29T03:26:41;9.23;;;5.90;;
1378;SDS011;683;48.738;9.226;2023-04-29T03:29:08;6.70;;;6.07;;
1378;SDS011;683;48.738;9.226;2023-04-29T03:31:36;5.90;;;5.40;;
1378;SDS011;683;48.738;9.226;2023-04-29T03:34:03;6.10;;;5.50;;
1378;SDS011;683;48.738;9.226;2023-04-29T03:36:35;9.00;;;6.40;;
1378;SDS011;683;48.738;9.226;2023-04-29T03:39:06;8.87;;;6.60;;
1378;SDS011;683;48.738;9.226;2023-04-29T03:41:35;5.50;;;5.10;;
1378;SDS011;683;48.738;9.226;2023-04-29T03:44:05;5.17;;;4.77;;
1378;SDS011;683;48.738;9.226;2023-04-29T03:46:32;5.90;;;5.40;;
1378;SDS011;683;48.738;9.226;2023-04-29T03:49:01;5.20;;;4.77;;
1378;SDS011;683;48.738;9.226;2023-04-29T03:51:28;5.70;;;5.20;;
1378;SDS011;683;48.738;9.226;2023-04-29T03:54:06;5.13;;;4.03;;
1378;SDS011;683;48.738;9.226;2023-04-29T03:56:35;4.43;;;4.13;;
1378;SDS011;683;48.738;9.226;2023-04-29T03:59:03;3.93;;;3.73;;
1378;SDS011;683;48.738;9.226;2023-04-29T04:01:30;4.83;;;4.43;;
1378;SDS011;683;48.738;9.226;2023-04-29T04:03:58;4.60;;;4.30;;
1378;SDS011;683;48.738;9.226;2023-04-29T04:06:25;5.27;;;4.87;;
1378;SDS011;683;48.738;9.226;2023-04-29T04:08:53;4.30;;;4.00;;
1378;SDS011;683;48.738;9.226;2023-04-29T04:11:26;4.40;;;4.10;;
1378;SDS011;683;48.738;9.226;2023-04-29T04:14:01;4.70;;;4.40;;
1378;SDS011;683;48.738;9.226;2023-04-29T04:16:30;5.03;;;4.73;;
1378;SDS011;683;48.738;9.226;2023-04-29T04:18:57;5.63;;;5.23;;
1378;SDS011;683;48.738;9.226;2023-04-29T04:21:25;6.23;;;5.77;;
1378;SDS011;683;48.738;9.226;2023-04-29T04:24:00;5.60;;;5.20;;
1378;SDS011;683;48.738;9.226;2023-04-29T04:26:30;5.83;;;5.27;;
1378;SDS011;683;48.738;9.226;2023-04-29T04:29:20;5.73;;;5.23;;
1378;SDS011;683;48.738;9.226;2023-04-29T04:31:55;5.97;;;5.47;;
1378;SDS011;683;48.738;9.226;2023-04-29T04:34:23;5.37;;;4.87;;
1378;SDS011;683;48.738;9.226;2023-04-29T04:36:53;5.83;;;5.43;;
1378;SDS011;683;48.738;9.226;2023-04-29T04:39:21;6.40;;;5.83;;
1378;SDS011;683;48.738;9.226;2023-04-29T04:41:51;6.33;;;5.73;;
1378;SDS011;683;48.738;9.226;2023-04-29T04:44:19;5.20;;;4.80;;
1378;SDS011;683;48.738;9.226;2023-04-29T04:47:06;5.63;;;4.87;;
1378;SDS011;683;48.738;9.226;2023-04-29T04:50:06;4.93;;;4.53;;
1378;SDS011;683;48.738;9.226;2023-04-29T04:52:35;5.17;;;4.77;;
1378;SDS011;683;48.738;9.226;2023-04-29T04:55:19;5.83;;;5.33;;
1378;SDS011;683;48.738;9.226;2023-04-29T04:57:50;5.80;;;5.27;;
1378;SDS011;683;48.738;9.226;2023-04-29T05:00:17;5.47;;;5.07;;
1378;SDS011;683;48.738;9.226;2023-04-29T05:02:45;4.83;;;4.47;;
1378;SDS011;683;48.738;9.226;2023-04-29T05:05:13;6.03;;;4.30;;
1378;SDS011;683;48.738;9.226;2023-04-29T05:07:41;4.80;;;4.40;;
1378;SDS011;683;48.738;9.226;2023-04-29T05:10:09;4.67;;;4.27;;
1378;SDS011;683;48.738;9.226;2023-04-29T05:12:51;5.13;;;4.83;;
1378;SDS011;683;48.738;9.226;2023-04-29T05:15:19;5.00;;;4.60;;
1378;SDS011;683;48.738;9.226;2023-04-29T05:17:49;4.47;;;4.17;;
1378;SDS011;683;48.738;9.226;2023-04-29T05:20:17;5.00;;;4.60;;
1378;SDS011;683;48.738;9.226;2023-04-29T05:22:44;5.83;;;5.33;;
1378;SDS011;683;48.738;9.226;2023-04-29T05:25:13;6.37;;;5.87;;
1378;SDS011;683;48.738;9.226;2023-04-29T05:27:40;7.13;;;4.83;;
1378;SDS011;683;48.738;9.226;2023-04-29T05:30:14;7.23;;;6.53;;
1378;SDS011;683;48.738;9.226;2023-04-29T05:32:43;5.53;;;5.00;;
1378;SDS011;683;48.738;9.226;2023-04-29T05:35:14;5.30;;;4.90;;
1378;SDS011;683;48.738;9.226;2023-04-29T05:37:42;5.23;;;4.80;;
1378;SDS011;683;48.738;9.226;2023-04-29T05:40:42;5.63;;;5.23;;
1378;SDS011;683;48.738;9.226;2023-04-29T05:43:32;7.80;;;7.10;;
1378;SDS011;683;48.738;9.226;2023-04-29T05:46:01;7.07;;;6.47;;
1378;SDS011;683;48.738;9.226;2023-04-29T05:48:28;7.50;;;6.80;;
1378;SDS011;683;48.738;9.226;2023-04-29T05:50:56;6.57;;;6.07;;
1378;SDS011;683;48.738;9.226;2023-04-29T05:53:23;6.67;;;6.10;;
1378;SDS011;683;48.738;9.226;2023-04-29T05:55:51;7.27;;;6.57;;
1378;SDS011;683;48.738;9.226;2023-04-29T05:58:20;8.07;;;7.27;;
1378;SDS011;683;48.738;9.226;2023-04-29T06:00:48;7.43;;;6.83;;
1378;SDS011;683;48.738;9.226;2023-04-29T06:03:23;7.33;;;6.63;;
1378;SDS011;683;48.738;9.226;2023-04-29T06:06:14;6.43;;;5.83;;
1378;SDS011;683;48.738;9.226;2023-04-29T06:09:05;6.70;;;6.10;;
1378;SDS011;683;48.738;9.226;2023-04-29T06:11:33;7.00;;;6.40;;
1378;SDS011;683;48.738;9.226;2023-04-29T06:14:01;7.20;;;6.60;;
1378;SDS011;683;48.738;9.226;2023-04-29T06:16:28;5.90;;;5.50;;
1378;SDS011;683;48.738;9.226;2023-04-29T06:18:58;5.70;;;5.30;;
1378;SDS011;683;48.738;9.226;2023-04-29T06:21:26;5.23;;;4.83;;
1378;SDS011;683;48.738;9.226;2023-04-29T06:23:54;5.40;;;4.90;;
1378;SDS011;683;48.738;9.226;2023-04-29T06:26:21;4.77;;;4.47;;
1378;SDS011;683;48.738;9.226;2023-04-29T06:28:49;4.60;;;4.30;;
1378;SDS011;683;48.738;9.226;2023-04-29T06:31:17;4.97;;;4.57;;
1378;SDS011;683;48.738;9.226;2023-04-29T06:33:47;5.00;;;4.60;;
1378;SDS011;683;48.738;9.226;2023-04-29T06:36:16;5.20;;;4.80;;
1378;SDS011;683;48.738;9.226;2023-04-29T06:38:55;4.40;;;4.10;;
1378;SDS011;683;48.738;9.226;2023-04-29T06:41:38;6.00;;;5.00;;
1378;SDS011;683;48.738;9.226;2023-04-29T06:44:24;6.30;;;4.33;;
1378;SDS011;683;48.738;9.226;2023-04-29T06:47:10;5.23;;;4.73;;
1378;SDS011;683;48.738;9.226;2023-04-29T06:49:52;6.20;;;5.60;;
1378;SDS011;683;48.738;9.226;2023-04-29T06:52:22;6.30;;;5.70;;
1378;SDS011;683;48.738;9.226;2023-04-29T06:54:49;5.63;;;5.13;;
1378;SDS011;683;48.738;9.226;2023-04-29T06:57:17;4.90;;;4.60;;
1378;SDS011;683;48.738;9.226;2023-04-29T06:59:46;6.70;;;5.90;;
1378;SDS011;683;48.738;9.226;2023-04-29T07:02:14;5.33;;;4.90;;
1378;SDS011;683;48.738;9.226;2023-04-29T07:04:41;4.83;;;4.53;;
1378;SDS011;683;48.738;9.226;2023-04-29T07:07:09;5.10;;;4.70;;
1378;SDS011;683;48.738;9.226;2023-04-29T07:09:38;5.17;;;4.77;;
1378;SDS011;683;48.738;9.226;2023-04-29T07:12:05;4.13;;;3.93;;
1378;SDS011;683;48.738;9.226;2023-04-29T07:14:33;5.00;;;4.60;;
1378;SDS011;683;48.738;9.226;2023-04-29T07:17:02;4.77;;;4.27;;
1378;SDS011;683;48.738;9.226;2023-04-29T07:19:30;5.90;;;5.50;;
1378;SDS011;683;48.738;9.226;2023-04-29T07:21:57;5.03;;;4.63;;
1378;SDS011;683;48.738;9.226;2023-04-29T07:24:25;5.03;;;4.73;;
1378;SDS011;683;48.738;9.226;2023-04-29T07:26:54;4.20;;;3.80;;
1378;SDS011;683;48.738;9.226;2023-04-29T07:29:21;5.80;;;3.97;;
1378;SDS011;683;48.738;9.226;2023-04-29T07:31:49;3.90;;;3.60;;
1378;SDS011;683;48.738;9.226;2023-04-29T07:34:16;4.07;;;3.70;;
1378;SDS011;683;48.738;9.226;2023-04-29T07:36:44;3.70;;;3.40;;
1378;SDS011;683;48.738;9.226;2023-04-29T07:39:11;3.30;;;3.10;;
1378;SDS011;683;48.738;9.226;2023-04-29T07:41:43;3.80;;;3.40;;
1378;SDS011;683;48.738;9.226;2023-04-29T07:44:12;3.47;;;3.27;;
1378;SDS011;683;48.738;9.226;2023-04-29T07:46:40;3.13;;;2.93;;
1378;SDS011;683;48.738;9.226;2023-04-29T07:49:07;2.97;;;2.77;;
1378;SDS011;683;48.738;9.226;2023-04-29T07:51:35;2.90;;;2.70;;
1378;SDS011;683;48.738;9.226;2023-04-29T07:54:02;2.57;;;2.37;;
1378;SDS011;683;48.738;9.226;2023-04-29T07:56:30;2.90;;;2.70;;
1378;SDS011;683;48.738;9.226;2023-04-29T07:58:58;2.83;;;2.63;;
1378;SDS011;683;48.738;9.226;2023-04-29T08:01:27;2.70;;;2.50;;
1378;SDS011;683;48.738;9.226;2023-04-29T08:03:55;2.03;;;1.90;;
1378;SDS011;683;48.738;9.226;2023-04-29T08:06:24;2.03;;;1.93;;
1378;SDS011;683;48.738;9.226;2023-04-29T08:08:52;2.50;;;2.30;;
1378;SDS011;683;48.738;9.226;2023-04-29T08:11:20;1.90;;;1.80;;
1378;SDS011;683;48.738;9.226;2023-04-29T08:13:49;3.00;;;2.27;;
1378;SDS011;683;48.738;9.226;2023-04-29T08:16:16;2.17;;;2.07;;
1378;SDS011;683;48.738;9.226;2023-04-29T08:18:45;2.57;;;2.40;;
1378;SDS011;683;48.738;9.226;2023-04-29T08:21:13;2.20;;;2.10;;
1378;SDS011;683;48.738;9.226;2023-04-29T08:23:40;2.73;;;2.53;;
1378;SDS011;683;48.738;9.226;2023-04-29T08:26:08;2.47;;;2.27;;
1378;SDS011;683;48.738;9.226;2023-04-29T08:28:37;2.40;;;2.30;;
1378;SDS011;683;48.738;9.226;2023-04-29T08:31:04;2.53;;;2.37;;
1378;SDS011;683;48.738;9.226;2023-04-29T08:33:35;2.23;;;2.13;;
1378;SDS011;683;48.738;9.226;2023-04-29T08:36:04;2.20;;;2.10;;
1378;SDS011;683;48.738;9.226;2023-04-29T08:38:33;2.53;;;2.30;;
1378;SDS011;683;48.738;9.226;2023-04-29T08:41:00;1.83;;;1.73;;
1378;SDS011;683;48.738;9.226;2023-04-29T08:43:28;3.27;;;2.40;;
1378;SDS011;683;48.738;9.226;2023-04-29T08:45:56;2.30;;;2.10;;
1378;SDS011;683;48.738;9.226;2023-04-29T08:48:24;2.63;;;2.50;;
1378;SDS011;683;48.738;9.226;2023-04-29T08:50:53;3.63;;;2.73;;
1378;SDS011;683;48.738;9.226;2023-04-29T08:53:22;2.90;;;2.70;;
1378;SDS011;683;48.738;9.226;2023-04-29T08:55:50;2.80;;;2.60;;
1378;SDS011;683;48.738;9.226;2023-04-29T08:58:20;2.73;;;2.37;;
1378;SDS011;683;48.738;9.226;2023-04-29T09:00:50;2.73;;;2.53;;
1378;SDS011;683;48.738;9.226;2023-04-29T09:03:20;4.40;;;2.73;;
1378;SDS011;683;48.738;9.226;2023-04-29T09:05:52;2.60;;;2.40;;
1378;SDS011;683;48.738;9.226;2023-04-29T09:08:21;2.90;;;2.70;;
1378;SDS011;683;48.738;9.226;2023-04-29T09:10:50;3.13;;;2.87;;
1378;SDS011;683;48.738;9.226;2023-04-29T09:13:21;6.50;;;3.33;;
1378;SDS011;683;48.738;9.226;2023-04-29T09:15:50;3.50;;;2.73;;
1378;SDS011;683;48.738;9.226;2023-04-29T09:21:11;4.10;;;3.80;;
1378;SDS011;683;48.738;9.226;2023-04-29T09:23:41;3.20;;;3.00;;
1378;SDS011;683;48.738;9.226;2023-04-29T09:26:08;6.20;;;3.10;;
1378;SDS011;683;48.738;9.226;2023-04-29T09:28:36;11.90;;;4.50;;
1378;SDS011;683;48.738;9.226;2023-04-29T09:31:05;30.47;;;18.17;;
1378;SDS011;683;48.738;9.226;2023-04-29T09:33:48;4.10;;;3.70;;
1378;SDS011;683;48.738;9.226;2023-04-29T09:39:03;3.47;;;3.27;;
1378;SDS011;683;48.738;9.226;2023-04-29T09:41:39;3.77;;;3.47;;
1378;SDS011;683;48.738;9.226;2023-04-29T09:44:08;4.00;;;3.70;;
1378;SDS011;683;48.738;9.226;2023-04-29T09:46:36;3.13;;;2.83;;
1378;SDS011;683;48.738;9.226;2023-04-29T09:49:04;3.97;;;3.67;;
1378;SDS011;683;48.738;9.226;2023-04-29T09:51:52;3.87;;;3.57;;
1378;SDS011;683;48.738;9.226;2023-04-29T09:54:23;4.07;;;3.77;;
1378;SDS011;683;48.738;9.226;2023-04-29T09:56:53;3.20;;;3.00;;
1378;SDS011;683;48.738;9.226;2023-04-29T09:59:21;4.37;;;4.07;;
1378;SDS011;683;48.738;9.226;2023-04-29T10:01:50;4.60;;;4.20;;
1378;SDS011;683;48.738;9.226;2023-04-29T10:04:19;3.50;;;3.30;;
1378;SDS011;683;48.738;9.226;2023-04-29T10:06:47;3.30;;;3.10;;
1378;SDS011;683;48.738;9.226;2023-04-29T10:09:16;3.50;;;3.17;;
1378;SDS011;683;48.738;9.226;2023-04-29T10:11:46;4.90;;;3.03;;
1378;SDS011;683;48.738;9.226;2023-04-29T10:14:16;3.53;;;3.23;;
1378;SDS011;683;48.738;9.226;2023-04-29T10:16:45;3.70;;;3.40;;
1378;SDS011;683;48.738;9.226;2023-04-29T10:19:24;4.20;;;3.10;;
1378;SDS011;683;48.738;9.226;2023-04-29T10:21:53;6.60;;;2.90;;
1378;SDS011;683;48.738;9.226;2023-04-29T10:24:24;3.97;;;3.33;;
1378;SDS011;683;48.738;9.226;2023-04-29T10:26:53;3.23;;;2.97;;
1378;SDS011;683;48.738;9.226;2023-04-29T10:29:23;2.50;;;2.33;;
1378;SDS011;683;48.738;9.226;2023-04-29T10:31:53;3.00;;;2.80;;
1378;SDS011;683;48.738;9.226;2023-04-29T10:34:21;3.07;;;2.87;;
1378;SDS011;683;48.738;9.226;2023-04-29T10:36:50;2.20;;;1.90;;
1378;SDS011;683;48.738;9.226;2023-04-29T10:39:23;3.23;;;2.53;;
1378;SDS011;683;48.738;9.226;2023-04-29T10:41:58;3.67;;;2.93;;
1378;SDS011;683;48.738;9.226;2023-04-29T10:44:27;2.60;;;2.40;;
1378;SDS011;683;48.738;9.226;2023-04-29T10:50:00;2.70;;;2.40;;
1378;SDS011;683;48.738;9.226;2023-04-29T10:52:29;2.80;;;2.60;;
1378;SDS011;683;48.738;9.226;2023-04-29T10:55:16;3.10;;;2.30;;
1378;SDS011;683;48.738;9.226;2023-04-29T10:57:45;2.60;;;2.40;;
1378;SDS011;683;48.738;9.226;2023-04-29T11:00:20;2.90;;;2.70;;
1378;SDS011;683;48.738;9.226;2023-04-29T11:02:48;4.00;;;3.23;;
1378;SDS011;683;48.738;9.226;2023-04-29T11:05:17;3.80;;;3.50;;
1378;SDS011;683;48.738;9.226;2023-04-29T11:10:49;3.20;;;3.00;;
1378;SDS011;683;48.738;9.226;2023-04-29T11:13:24;3.53;;;3.23;;
1378;SDS011;683;48.738;9.226;2023-04-29T11:15:52;3.70;;;3.40;;
1378;SDS011;683;48.738;9.226;2023-04-29T11:18:20;3.00;;;2.70;;
1378;SDS011;683;48.738;9.226;2023-04-29T11:23:38;2.70;;;2.50;;
1378;SDS011;683;48.738;9.226;2023-04-29T11:26:06;3.47;;;3.20;;
1378;SDS011;683;48.738;9.226;2023-04-29T11:28:36;4.90;;;2.50;;
1378;SDS011;683;48.738;9.226;2023-04-29T11:31:04;2.93;;;2.73;;
1378;SDS011;683;48.738;9.226;2023-04-29T11:33:33;2.37;;;2.20;;
1378;SDS011;683;48.738;9.226;2023-04-29T11:36:01;7.43;;;2.57;;
1378;SDS011;683;48.738;9.226;2023-04-29T11:38:29;3.23;;;2.40;;
1378;SDS011;683;48.738;9.226;2023-04-29T11:40:57;3.70;;;2.53;;
1378;SDS011;683;48.738;9.226;2023-04-29T11:43:25;3.40;;;2.93;;
1378;SDS011;683;48.738;9.226;2023-04-29T11:45:54;2.70;;;2.50;;
1378;SDS011;683;48.738;9.226;2023-04-29T11:48:22;2.30;;;2.20;;
1378;SDS011;683;48.738;9.226;2023-04-29T11:50:51;4.17;;;2.20;;
1378;SDS011;683;48.738;9.226;2023-04-29T11:53:20;2.10;;;2.00;;
1378;SDS011;683;48.738;9.226;2023-04-29T11:55:50;2.70;;;2.50;;
1378;SDS011;683;48.738;9.226;2023-04-29T11:58:19;2.77;;;2.57;;
1378;SDS011;683;48.738;9.226;2023-04-29T12:00:47;3.17;;;2.63;;
1378;SDS011;683;48.738;9.226;2023-04-29T12:03:16;2.73;;;2.30;;
1378;SDS011;683;48.738;9.226;2023-04-29T12:05:47;3.57;;;3.00;;
1378;SDS011;683;48.738;9.226;2023-04-29T12:08:18;3.10;;;2.90;;
1378;SDS011;683;48.738;9.226;2023-04-29T12:10:46;3.00;;;2.77;;
1378;SDS011;683;48.738;9.226;2023-04-29T12:13:13;3.80;;;3.50;;
1378;SDS011;683;48.738;9.226;2023-04-29T12:15:41;3.60;;;3.30;;
1378;SDS011;683;48.738;9.226;2023-04-29T12:18:10;4.77;;;4.37;;
1378;SDS011;683;48.738;9.226;2023-04-29T12:20:39;5.70;;;5.20;;
1378;SDS011;683;48.738;9.226;2023-04-29T12:23:10;7.20;;;5.10;;
1378;SDS011;683;48.738;9.226;2023-04-29T12:25:38;6.00;;;4.60;;
1378;SDS011;683;48.738;9.226;2023-04-29T12:28:10;3.90;;;3.50;;
1378;SDS011;683;48.738;9.226;2023-04-29T12:30:38;3.67;;;3.47;;
1378;SDS011;683;48.738;9.226;2023-04-29T12:33:06;4.30;;;3.90;;
1378;SDS011;683;48.738;9.226;2023-04-29T12:35:35;4.40;;;4.00;;
1378;SDS011;683;48.738;9.226;2023-04-29T12:38:05;3.40;;;3.10;;
1378;SDS011;683;48.738;9.226;2023-04-29T12:40:33;4.23;;;3.67;;
1378;SDS011;683;48.738;9.226;2023-04-29T12:43:05;5.13;;;4.63;;
1378;SDS011;683;48.738;9.226;2023-04-29T12:45:33;5.47;;;4.97;;
1378;SDS011;683;48.738;9.226;2023-04-29T12:48:01;5.57;;;4.83;;
1378;SDS011;683;48.738;9.226;2023-04-29T12:50:29;5.37;;;4.80;;
1378;SDS011;683;48.738;9.226;2023-04-29T12:52:59;7.20;;;5.97;;
1378;SDS011;683;48.738;9.226;2023-04-29T12:55:28;5.43;;;4.73;;
1378;SDS011;683;48.738;9.226;2023-04-29T12:57:55;5.90;;;5.40;;
1378;SDS011;683;48.738;9.226;2023-04-29T13:00:23;4.87;;;4.40;;
1378;SDS011;683;48.738;9.226;2023-04-29T13:02:50;6.87;;;5.30;;
1378;SDS011;683;48.738;9.226;2023-04-29T13:05:18;6.00;;;5.50;;
1378;SDS011;683;48.738;9.226;2023-04-29T13:07:46;5.30;;;4.83;;
1378;SDS011;683;48.738;9.226;2023-04-29T13:10:14;6.40;;;5.80;;
1378;SDS011;683;48.738;9.226;2023-04-29T13:12:43;5.60;;;5.20;;
1378;SDS011;683;48.738;9.226;2023-04-29T13:15:12;6.37;;;5.63;;
1378;SDS011;683;48.738;9.226;2023-04-29T13:17:39;6.33;;;5.83;;
1378;SDS011;683;48.738;9.226;2023-04-29T13:20:07;6.00;;;5.50;;
1378;SDS011;683;48.738;9.226;2023-04-29T13:22:36;6.47;;;5.57;;
1378;SDS011;683;48.738;9.226;2023-04-29T13:25:03;5.00;;;4.60;;
1378;SDS011;683;48.738;9.226;2023-04-29T13:27:31;6.10;;;5.60;;
1378;SDS011;683;48.738;9.226;2023-04-29T13:30:00;5.47;;;4.53;;
1378;SDS011;683;48.738;9.226;2023-04-29T13:32:28;6.10;;;5.50;;
1378;SDS011;683;48.738;9.226;2023-04-29T13:34:56;6.03;;;5.53;;
1378;SDS011;683;48.738;9.226;2023-04-29T13:37:23;5.43;;;5.00;;
1378;SDS011;683;48.738;9.226;2023-04-29T13:39:51;5.90;;;5.07;;
1378;SDS011;683;48.738;9.226;2023-04-29T13:42:18;5.90;;;5.47;;
1378;SDS011;683;48.738;9.226;2023-04-29T13:44:45;6.37;;;5.73;;
1378;SDS011;683;48.738;9.226;2023-04-29T13:47:16;6.07;;;5.50;;
1378;SDS011;683;48.738;9.226;2023-04-29T13:49:43;5.40;;;5.00;;
1378;SDS011;683;48.738;9.226;2023-04-29T13:52:11;11.33;;;7.03;;
1378;SDS011;683;48.738;9.226;2023-04-29T13:54:39;5.47;;;5.07;;
1378;SDS011;683;48.738;9.226;2023-04-29T13:57:06;8.70;;;4.93;;
1378;SDS011;683;48.738;9.226;2023-04-29T13:59:34;5.97;;;5.47;;
1378;SDS011;683;48.738;9.226;2023-04-29T14:02:02;6.43;;;5.83;;
1378;SDS011;683;48.738;9.226;2023-04-29T14:04:31;6.00;;;5.50;;
1378;SDS011;683;48.738;9.226;2023-04-29T14:06:58;6.67;;;6.17;;
1378;SDS011;683;48.738;9.226;2023-04-29T14:09:26;5.97;;;5.47;;
1378;SDS011;683;48.738;9.226;2023-04-29T14:11:53;6.10;;;5.60;;
1378;SDS011;683;48.738;9.226;2023-04-29T14:14:21;7.47;;;6.80;;
1378;SDS011;683;48.738;9.226;2023-04-29T14:16:48;6.67;;;6.07;;
1378;SDS011;683;48.738;9.226;2023-04-29T14:19:16;6.57;;;6.07;;
1378;SDS011;683;48.738;9.226;2023-04-29T14:21:45;6.27;;;5.87;;
1378;SDS011;683;48.738;9.226;2023-04-29T14:24:12;7.00;;;6.50;;
1378;SDS011;683;48.738;9.226;2023-04-29T14:26:40;7.07;;;6.40;;
1378;SDS011;683;48.738;9.226;2023-04-29T14:29:07;5.97;;;5.47;;
1378;SDS011;683;48.738;9.226;2023-04-29T14:31:35;7.77;;;6.90;;
1378;SDS011;683;48.738;9.226;2023-04-29T14:34:03;6.33;;;5.80;;
1378;SDS011;683;48.738;9.226;2023-04-29T14:36:31;7.30;;;6.60;;
1378;SDS011;683;48.738;9.226;2023-04-29T14:39:00;7.23;;;6.60;;
1378;SDS011;683;48.738;9.226;2023-04-29T14:41:28;6.33;;;5.73;;
1378;SDS011;683;48.738;9.226;2023-04-29T14:43:55;5.90;;;5.40;;
1378;SDS011;683;48.738;9.226;2023-04-29T14:46:23;7.17;;;6.63;;
1378;SDS011;683;48.738;9.226;2023-04-29T14:48:53;8.37;;;7.67;;
1378;SDS011;683;48.738;9.226;2023-04-29T14:51:21;9.10;;;7.20;;
1378;SDS011;683;48.738;9.226;2023-04-29T14:53:48;7.83;;;7.03;;
1378;SDS011;683;48.738;9.226;2023-04-29T14:56:17;6.87;;;6.33;;
1378;SDS011;683;48.738;9.226;2023-04-29T14:58:45;6.27;;;5.77;;
1378;SDS011;683;48.738;9.226;2023-04-29T15:01:12;8.33;;;7.53;;
1378;SDS011;683;48.738;9.226;2023-04-29T15:03:40;7.87;;;7.17;;
1378;SDS011;683;48.738;9.226;2023-04-29T15:06:07;7.33;;;6.63;;
1378;SDS011;683;48.738;9.226;2023-04-29T15:08:35;7.23;;;6.63;;
1378;SDS011;683;48.738;9.226;2023-04-29T15:11:03;6.90;;;6.40;;
1378;SDS011;683;48.738;9.226;2023-04-29T15:13:31;7.00;;;6.30;;
1378;SDS011;683;48.738;9.226;2023-04-29T15:15:59;7.07;;;6.57;;
1378;SDS011;683;48.738;9.226;2023-04-29T15:18:26;6.90;;;6.30;;
1378;SDS011;683;48.738;9.226;2023-04-29T15:20:54;6.57;;;6.00;;
1378;SDS011;683;48.738;9.226;2023-04-29T15:23:21;8.93;;;8.03;;
1378;SDS011;683;48.738;9.226;2023-04-29T15:25:49;8.40;;;7.70;;
1378;SDS011;683;48.738;9.226;2023-04-29T15:28:17;8.80;;;7.90;;
1378;SDS011;683;48.738;9.226;2023-04-29T15:30:46;7.63;;;7.00;;
1378;SDS011;683;48.738;9.226;2023-04-29T15:33:13;10.23;;;9.33;;
1378;SDS011;683;48.738;9.226;2023-04-29T15:35:41;8.67;;;7.77;;
1378;SDS011;683;48.738;9.226;2023-04-29T15:38:09;8.33;;;7.50;;
1378;SDS011;683;48.738;9.226;2023-04-29T15:40:36;9.30;;;8.47;;
1378;SDS011;683;48.738;9.226;2023-04-29T15:43:04;13.77;;;11.87;;
1378;SDS011;683;48.738;9.226;2023-04-29T15:45:31;13.30;;;9.60;;
1378;SDS011;683;48.738;9.226;2023-04-29T15:48:00;9.10;;;8.30;;
1378;SDS011;683;48.738;9.226;2023-04-29T15:50:28;8.73;;;6.70;;
1378;SDS011;683;48.738;9.226;2023-04-29T15:52:55;8.90;;;8.00;;
1378;SDS011;683;48.738;9.226;2023-04-29T15:55:24;8.87;;;8.07;;
1378;SDS011;683;48.738;9.226;2023-04-29T15:57:51;9.53;;;7.70;;
1378;SDS011;683;48.738;9.226;2023-04-29T16:00:19;8.47;;;7.63;;